McCook, NE

07:35 AM CST em 09 de Dezembro de 2016 (GMT -0600)
McCook Municipal | | Change Station

Elev 2579 ft 40.20 °N, 100.59 °W | Updated 42 minutes ago

Céu Encoberto
Céu Encoberto
10 °F
Aparente 4 °F
N
4
Vento Variável Vento de NE

Hoje
Máxima -- | Mínima -- °F
--% Possibilidade de Precip.
Ontem
Máxima -- | Mínima -- °F
Precip. -- pol
Pressão 30.55 pol
Visibilidade 10.0 milhas
Nuvens Céu Encoberto 3600 ft
Sensação Térmica 4 °F
Ponto de Orvalho 5 °F
Humidade 80%
Chuva 0.00 pol
Altura de Neve Não disponível
7:53 AM 5:16 PM
Lua crescente, 74% visible
METAR KMCK 091253Z AUTO 05003KT 10SM OVC036 M12/M15 A3039 RMK AO2 SLP344 T11221150
Pressão 30.55 pol
Visibilidade 10.0 milhas
Nuvens Céu Encoberto 3600 ft
Sensação Térmica 4 °F
Ponto de Orvalho 5 °F
Humidade 80%
Chuva 0.00 pol
Altura de Neve Não disponível
7:53 AM 5:16 PM
Lua crescente, 74% visible
METAR KMCK 091253Z AUTO 05003KT 10SM OVC036 M12/M15 A3039 RMK AO2 SLP344 T11221150

10-Day Weather Forecast

Almanac

Astronomia

Dec. 09, 2016 Nascer Pôr
Hora atual
Crepúsculo civil
Crepúsculo náutico
Crepúsculo astronómico
Lua
Comprimento da luz visível
Duração do Dia
Tomorrow will be .
, % of the Moon is Illuminated

Extremos de Hoje

situação na parte mais alta situação na parte mais baixa

Community

WunderPhotos

Upload Photos

1,956,407 fotografias inseridas!

WunderBlog® & News

Nearby

Qualidade do Ar

  Qualidade do Ar Índice da Q.A. Poluente
Not available.

Altura da Neve

Estação altura Altitude

Actividade Sísmisca

Cidade Distância Mag. Hora & Data
Mínima magnitude apresentada é 2.5.

Temperaturas das Águas Costeiras

Local Temperatura

Stations

Estações Meteorológicas Próximas

Localização da Estação Temp. Sensação Térmica Ponto de Orvalho Humidade Vento Precip. Elev Actualizado Tipo
                   

Watches & Warnings

There are currently no watches in effect.